sensor_id;sensor_type;location;lat;lon;timestamp;P1;durP1;ratioP1;P2;durP2;ratioP2
73693;SDS011;61997;53.974;11.670;2022-09-17T00:00:45;6.40;;;3.80;;
73693;SDS011;61997;53.974;11.670;2022-09-17T00:03:12;7.45;;;3.92;;
73693;SDS011;61997;53.974;11.670;2022-09-17T00:05:37;6.80;;;3.60;;
73693;SDS011;61997;53.974;11.670;2022-09-17T00:08:03;6.15;;;3.20;;
73693;SDS011;61997;53.974;11.670;2022-09-17T00:10:30;6.57;;;3.35;;
73693;SDS011;61997;53.974;11.670;2022-09-17T00:12:55;6.90;;;3.33;;
73693;SDS011;61997;53.974;11.670;2022-09-17T00:15:21;6.47;;;3.83;;
73693;SDS011;61997;53.974;11.670;2022-09-17T00:17:46;7.35;;;3.55;;
73693;SDS011;61997;53.974;11.670;2022-09-17T00:20:12;7.57;;;3.63;;
73693;SDS011;61997;53.974;11.670;2022-09-17T00:22:38;5.97;;;3.38;;
73693;SDS011;61997;53.974;11.670;2022-09-17T00:25:04;7.13;;;3.50;;
73693;SDS011;61997;53.974;11.670;2022-09-17T00:27:30;6.25;;;3.42;;
73693;SDS011;61997;53.974;11.670;2022-09-17T00:29:55;8.90;;;4.05;;
73693;SDS011;61997;53.974;11.670;2022-09-17T00:32:21;6.65;;;3.10;;
73693;SDS011;61997;53.974;11.670;2022-09-17T00:34:47;7.05;;;3.38;;
73693;SDS011;61997;53.974;11.670;2022-09-17T00:37:16;6.65;;;3.75;;
73693;SDS011;61997;53.974;11.670;2022-09-17T00:39:41;9.73;;;3.97;;
73693;SDS011;61997;53.974;11.670;2022-09-17T00:42:08;6.45;;;2.90;;
73693;SDS011;61997;53.974;11.670;2022-09-17T00:47:10;6.38;;;3.60;;
73693;SDS011;61997;53.974;11.670;2022-09-17T00:49:50;5.07;;;3.08;;
73693;SDS011;61997;53.974;11.670;2022-09-17T00:52:23;5.60;;;2.92;;
73693;SDS011;61997;53.974;11.670;2022-09-17T00:54:53;5.95;;;3.20;;
73693;SDS011;61997;53.974;11.670;2022-09-17T00:57:22;7.63;;;3.50;;
73693;SDS011;61997;53.974;11.670;2022-09-17T00:59:48;4.72;;;3.10;;
73693;SDS011;61997;53.974;11.670;2022-09-17T01:02:13;5.25;;;3.15;;
73693;SDS011;61997;53.974;11.670;2022-09-17T01:04:39;5.30;;;3.30;;
73693;SDS011;61997;53.974;11.670;2022-09-17T01:12:42;8.02;;;3.33;;
73693;SDS011;61997;53.974;11.670;2022-09-17T01:21:05;6.25;;;3.28;;
73693;SDS011;61997;53.974;11.670;2022-09-17T01:32:34;7.65;;;3.63;;
73693;SDS011;61997;53.974;11.670;2022-09-17T01:35:06;5.72;;;2.72;;
73693;SDS011;61997;53.974;11.670;2022-09-17T01:40:16;7.53;;;3.10;;
73693;SDS011;61997;53.974;11.670;2022-09-17T01:45:40;6.55;;;3.40;;
73693;SDS011;61997;53.974;11.670;2022-09-17T01:50:45;6.47;;;3.30;;
73693;SDS011;61997;53.974;11.670;2022-09-17T01:53:14;6.13;;;3.30;;
73693;SDS011;61997;53.974;11.670;2022-09-17T01:55:42;6.05;;;3.08;;
73693;SDS011;61997;53.974;11.670;2022-09-17T02:00:57;6.90;;;3.15;;
73693;SDS011;61997;53.974;11.670;2022-09-17T02:03:31;5.97;;;3.22;;
73693;SDS011;61997;53.974;11.670;2022-09-17T02:06:05;6.70;;;3.33;;
73693;SDS011;61997;53.974;11.670;2022-09-17T02:08:36;5.60;;;3.10;;
73693;SDS011;61997;53.974;11.670;2022-09-17T02:11:22;5.18;;;2.78;;
73693;SDS011;61997;53.974;11.670;2022-09-17T02:14:04;6.65;;;3.28;;
73693;SDS011;61997;53.974;11.670;2022-09-17T02:16:35;6.80;;;3.33;;
73693;SDS011;61997;53.974;11.670;2022-09-17T02:19:24;7.32;;;3.38;;
73693;SDS011;61997;53.974;11.670;2022-09-17T02:21:52;4.25;;;3.10;;
73693;SDS011;61997;53.974;11.670;2022-09-17T02:27:39;6.75;;;3.40;;
73693;SDS011;61997;53.974;11.670;2022-09-17T02:30:09;6.40;;;2.85;;
73693;SDS011;61997;53.974;11.670;2022-09-17T02:32:35;5.90;;;3.17;;
73693;SDS011;61997;53.974;11.670;2022-09-17T02:35:00;5.75;;;2.90;;
73693;SDS011;61997;53.974;11.670;2022-09-17T02:37:25;4.70;;;2.65;;
73693;SDS011;61997;53.974;11.670;2022-09-17T02:39:51;5.20;;;2.80;;
73693;SDS011;61997;53.974;11.670;2022-09-17T02:55:01;6.10;;;2.90;;
73693;SDS011;61997;53.974;11.670;2022-09-17T02:57:11;6.40;;;2.90;;
73693;SDS011;61997;53.974;11.670;2022-09-17T03:05:08;5.03;;;2.25;;
73693;SDS011;61997;53.974;11.670;2022-09-17T03:07:34;6.50;;;2.70;;
73693;SDS011;61997;53.974;11.670;2022-09-17T03:10:02;6.03;;;2.88;;
73693;SDS011;61997;53.974;11.670;2022-09-17T03:12:28;5.55;;;2.70;;
73693;SDS011;61997;53.974;11.670;2022-09-17T03:14:53;5.60;;;2.92;;
73693;SDS011;61997;53.974;11.670;2022-09-17T03:17:19;6.13;;;2.97;;
73693;SDS011;61997;53.974;11.670;2022-09-17T03:19:44;4.78;;;2.80;;
73693;SDS011;61997;53.974;11.670;2022-09-17T03:22:09;5.55;;;2.70;;
73693;SDS011;61997;53.974;11.670;2022-09-17T03:24:35;5.65;;;2.70;;
73693;SDS011;61997;53.974;11.670;2022-09-17T03:27:00;5.32;;;2.95;;
73693;SDS011;61997;53.974;11.670;2022-09-17T03:29:26;5.47;;;2.50;;
73693;SDS011;61997;53.974;11.670;2022-09-17T03:31:51;4.88;;;2.60;;
73693;SDS011;61997;53.974;11.670;2022-09-17T03:34:17;7.50;;;3.00;;
73693;SDS011;61997;53.974;11.670;2022-09-17T03:36:42;7.13;;;2.95;;
73693;SDS011;61997;53.974;11.670;2022-09-17T03:39:07;5.82;;;2.83;;
73693;SDS011;61997;53.974;11.670;2022-09-17T03:41:33;4.72;;;2.75;;
73693;SDS011;61997;53.974;11.670;2022-09-17T03:43:58;6.13;;;2.45;;
73693;SDS011;61997;53.974;11.670;2022-09-17T03:46:24;5.28;;;2.72;;
73693;SDS011;61997;53.974;11.670;2022-09-17T03:48:49;5.65;;;2.60;;
73693;SDS011;61997;53.974;11.670;2022-09-17T03:51:14;6.38;;;3.08;;
73693;SDS011;61997;53.974;11.670;2022-09-17T03:53:40;5.55;;;2.40;;
73693;SDS011;61997;53.974;11.670;2022-09-17T03:56:05;4.57;;;2.55;;
73693;SDS011;61997;53.974;11.670;2022-09-17T03:58:31;6.35;;;2.80;;
73693;SDS011;61997;53.974;11.670;2022-09-17T04:00:57;6.25;;;2.78;;
73693;SDS011;61997;53.974;11.670;2022-09-17T04:03:23;5.00;;;2.75;;
73693;SDS011;61997;53.974;11.670;2022-09-17T04:05:49;6.57;;;2.70;;
73693;SDS011;61997;53.974;11.670;2022-09-17T04:08:14;5.50;;;2.63;;
73693;SDS011;61997;53.974;11.670;2022-09-17T04:10:40;6.95;;;3.17;;
73693;SDS011;61997;53.974;11.670;2022-09-17T04:13:05;4.72;;;2.67;;
73693;SDS011;61997;53.974;11.670;2022-09-17T04:15:30;4.25;;;2.50;;
73693;SDS011;61997;53.974;11.670;2022-09-17T04:17:56;3.95;;;2.40;;
73693;SDS011;61997;53.974;11.670;2022-09-17T04:20:22;7.13;;;2.70;;
73693;SDS011;61997;53.974;11.670;2022-09-17T04:22:48;5.05;;;2.65;;
73693;SDS011;61997;53.974;11.670;2022-09-17T04:25:13;6.85;;;2.88;;
73693;SDS011;61997;53.974;11.670;2022-09-17T04:27:39;4.18;;;2.30;;
73693;SDS011;61997;53.974;11.670;2022-09-17T04:30:04;5.72;;;2.58;;
73693;SDS011;61997;53.974;11.670;2022-09-17T04:32:30;7.05;;;3.05;;
73693;SDS011;61997;53.974;11.670;2022-09-17T04:34:56;5.68;;;2.30;;
73693;SDS011;61997;53.974;11.670;2022-09-17T04:37:21;5.80;;;2.40;;
73693;SDS011;61997;53.974;11.670;2022-09-17T04:39:47;5.80;;;2.80;;
73693;SDS011;61997;53.974;11.670;2022-09-17T04:42:14;6.53;;;2.75;;
73693;SDS011;61997;53.974;11.670;2022-09-17T04:44:39;6.65;;;2.92;;
73693;SDS011;61997;53.974;11.670;2022-09-17T04:47:05;5.13;;;2.40;;
73693;SDS011;61997;53.974;11.670;2022-09-17T04:49:30;6.20;;;2.45;;
73693;SDS011;61997;53.974;11.670;2022-09-17T04:51:56;7.00;;;2.45;;
73693;SDS011;61997;53.974;11.670;2022-09-17T04:54:22;5.68;;;3.00;;
73693;SDS011;61997;53.974;11.670;2022-09-17T04:56:48;5.45;;;2.60;;
73693;SDS011;61997;53.974;11.670;2022-09-17T04:59:13;6.70;;;3.03;;
73693;SDS011;61997;53.974;11.670;2022-09-17T05:01:39;4.72;;;2.13;;
73693;SDS011;61997;53.974;11.670;2022-09-17T05:04:04;5.53;;;2.47;;
73693;SDS011;61997;53.974;11.670;2022-09-17T05:06:30;4.82;;;2.60;;
73693;SDS011;61997;53.974;11.670;2022-09-17T05:08:55;6.38;;;2.65;;
73693;SDS011;61997;53.974;11.670;2022-09-17T05:11:20;6.22;;;2.83;;
73693;SDS011;61997;53.974;11.670;2022-09-17T05:13:46;6.28;;;2.65;;
73693;SDS011;61997;53.974;11.670;2022-09-17T05:16:11;6.32;;;3.50;;
73693;SDS011;61997;53.974;11.670;2022-09-17T05:18:37;6.15;;;2.83;;
73693;SDS011;61997;53.974;11.670;2022-09-17T05:21:02;6.55;;;2.78;;
73693;SDS011;61997;53.974;11.670;2022-09-17T05:23:27;6.10;;;2.88;;
73693;SDS011;61997;53.974;11.670;2022-09-17T05:25:56;6.10;;;2.80;;
73693;SDS011;61997;53.974;11.670;2022-09-17T05:28:23;5.60;;;2.33;;
73693;SDS011;61997;53.974;11.670;2022-09-17T05:30:48;7.80;;;2.80;;
73693;SDS011;61997;53.974;11.670;2022-09-17T05:33:13;5.60;;;2.45;;
73693;SDS011;61997;53.974;11.670;2022-09-17T05:35:39;5.60;;;2.88;;
73693;SDS011;61997;53.974;11.670;2022-09-17T05:38:05;5.50;;;2.70;;
73693;SDS011;61997;53.974;11.670;2022-09-17T05:40:33;6.85;;;2.95;;
73693;SDS011;61997;53.974;11.670;2022-09-17T05:42:59;5.55;;;2.75;;
73693;SDS011;61997;53.974;11.670;2022-09-17T05:45:26;8.25;;;3.00;;
73693;SDS011;61997;53.974;11.670;2022-09-17T05:47:58;6.82;;;3.08;;
73693;SDS011;61997;53.974;11.670;2022-09-17T05:50:24;5.60;;;2.92;;
73693;SDS011;61997;53.974;11.670;2022-09-17T05:52:50;8.50;;;3.17;;
73693;SDS011;61997;53.974;11.670;2022-09-17T05:55:16;7.63;;;3.78;;
73693;SDS011;61997;53.974;11.670;2022-09-17T05:57:46;9.18;;;3.30;;
73693;SDS011;61997;53.974;11.670;2022-09-17T06:00:12;6.47;;;2.95;;
73693;SDS011;61997;53.974;11.670;2022-09-17T06:02:38;8.02;;;3.65;;
73693;SDS011;61997;53.974;11.670;2022-09-17T06:05:03;8.57;;;2.97;;
73693;SDS011;61997;53.974;11.670;2022-09-17T06:07:29;8.02;;;3.33;;
73693;SDS011;61997;53.974;11.670;2022-09-17T06:09:55;5.97;;;3.28;;
73693;SDS011;61997;53.974;11.670;2022-09-17T06:12:20;6.32;;;2.85;;
73693;SDS011;61997;53.974;11.670;2022-09-17T06:14:46;8.50;;;3.33;;
73693;SDS011;61997;53.974;11.670;2022-09-17T06:17:11;7.65;;;3.35;;
73693;SDS011;61997;53.974;11.670;2022-09-17T06:19:37;7.10;;;2.95;;
73693;SDS011;61997;53.974;11.670;2022-09-17T06:22:02;8.38;;;3.55;;
73693;SDS011;61997;53.974;11.670;2022-09-17T06:24:29;5.18;;;2.85;;
73693;SDS011;61997;53.974;11.670;2022-09-17T06:26:55;7.40;;;3.05;;
73693;SDS011;61997;53.974;11.670;2022-09-17T06:29:21;8.82;;;3.22;;
73693;SDS011;61997;53.974;11.670;2022-09-17T06:31:49;8.07;;;3.50;;
73693;SDS011;61997;53.974;11.670;2022-09-17T06:34:15;9.45;;;3.83;;
73693;SDS011;61997;53.974;11.670;2022-09-17T06:36:41;6.00;;;2.83;;
73693;SDS011;61997;53.974;11.670;2022-09-17T06:39:06;6.97;;;3.40;;
73693;SDS011;61997;53.974;11.670;2022-09-17T06:41:32;8.80;;;3.65;;
73693;SDS011;61997;53.974;11.670;2022-09-17T06:43:57;9.40;;;3.97;;
73693;SDS011;61997;53.974;11.670;2022-09-17T06:46:23;5.63;;;3.10;;
73693;SDS011;61997;53.974;11.670;2022-09-17T06:48:48;10.27;;;3.85;;
73693;SDS011;61997;53.974;11.670;2022-09-17T06:51:14;7.47;;;3.67;;
73693;SDS011;61997;53.974;11.670;2022-09-17T06:53:39;6.60;;;3.83;;
73693;SDS011;61997;53.974;11.670;2022-09-17T06:56:05;10.57;;;3.75;;
73693;SDS011;61997;53.974;11.670;2022-09-17T06:58:34;7.35;;;4.03;;
73693;SDS011;61997;53.974;11.670;2022-09-17T07:01:06;7.90;;;3.58;;
73693;SDS011;61997;53.974;11.670;2022-09-17T07:03:31;7.05;;;3.47;;
73693;SDS011;61997;53.974;11.670;2022-09-17T07:05:58;8.88;;;3.53;;
73693;SDS011;61997;53.974;11.670;2022-09-17T07:08:25;7.13;;;3.58;;
73693;SDS011;61997;53.974;11.670;2022-09-17T07:10:50;7.72;;;3.42;;
73693;SDS011;61997;53.974;11.670;2022-09-17T07:13:20;6.65;;;3.58;;
73693;SDS011;61997;53.974;11.670;2022-09-17T07:15:58;8.98;;;4.07;;
73693;SDS011;61997;53.974;11.670;2022-09-17T07:18:25;8.18;;;3.95;;
73693;SDS011;61997;53.974;11.670;2022-09-17T07:21:01;8.32;;;3.60;;
73693;SDS011;61997;53.974;11.670;2022-09-17T07:23:29;9.57;;;3.70;;
73693;SDS011;61997;53.974;11.670;2022-09-17T07:25:56;8.45;;;3.67;;
73693;SDS011;61997;53.974;11.670;2022-09-17T07:28:23;6.30;;;3.33;;
73693;SDS011;61997;53.974;11.670;2022-09-17T07:30:50;8.65;;;3.78;;
73693;SDS011;61997;53.974;11.670;2022-09-17T07:33:16;10.15;;;4.13;;
73693;SDS011;61997;53.974;11.670;2022-09-17T07:35:50;9.80;;;4.55;;
73693;SDS011;61997;53.974;11.670;2022-09-17T07:38:17;6.47;;;3.88;;
73693;SDS011;61997;53.974;11.670;2022-09-17T07:40:42;7.28;;;3.58;;
73693;SDS011;61997;53.974;11.670;2022-09-17T07:43:07;9.45;;;3.63;;
73693;SDS011;61997;53.974;11.670;2022-09-17T07:45:34;9.13;;;4.13;;
73693;SDS011;61997;53.974;11.670;2022-09-17T07:47:59;9.57;;;4.35;;
73693;SDS011;61997;53.974;11.670;2022-09-17T07:50:24;5.72;;;3.53;;
73693;SDS011;61997;53.974;11.670;2022-09-17T07:52:50;7.43;;;3.65;;
73693;SDS011;61997;53.974;11.670;2022-09-17T07:55:15;9.35;;;3.88;;
73693;SDS011;61997;53.974;11.670;2022-09-17T07:57:41;7.10;;;3.40;;
73693;SDS011;61997;53.974;11.670;2022-09-17T08:00:06;10.00;;;4.03;;
73693;SDS011;61997;53.974;11.670;2022-09-17T08:02:33;7.65;;;4.10;;
73693;SDS011;61997;53.974;11.670;2022-09-17T08:04:58;8.18;;;4.07;;
73693;SDS011;61997;53.974;11.670;2022-09-17T08:07:23;8.23;;;3.75;;
73693;SDS011;61997;53.974;11.670;2022-09-17T08:09:49;8.77;;;3.75;;
73693;SDS011;61997;53.974;11.670;2022-09-17T08:12:14;8.13;;;4.15;;
73693;SDS011;61997;53.974;11.670;2022-09-17T08:14:42;9.77;;;5.60;;
73693;SDS011;61997;53.974;11.670;2022-09-17T08:17:07;10.27;;;5.47;;
73693;SDS011;61997;53.974;11.670;2022-09-17T08:19:33;11.00;;;4.45;;
73693;SDS011;61997;53.974;11.670;2022-09-17T08:21:58;10.55;;;5.45;;
73693;SDS011;61997;53.974;11.670;2022-09-17T08:24:24;11.02;;;5.47;;
73693;SDS011;61997;53.974;11.670;2022-09-17T08:26:49;12.40;;;7.07;;
73693;SDS011;61997;53.974;11.670;2022-09-17T08:29:15;15.27;;;6.30;;
73693;SDS011;61997;53.974;11.670;2022-09-17T08:31:40;15.68;;;8.27;;
73693;SDS011;61997;53.974;11.670;2022-09-17T08:34:06;13.93;;;7.43;;
73693;SDS011;61997;53.974;11.670;2022-09-17T08:36:33;16.38;;;7.57;;
73693;SDS011;61997;53.974;11.670;2022-09-17T08:38:58;14.45;;;7.43;;
73693;SDS011;61997;53.974;11.670;2022-09-17T08:44:22;13.60;;;7.85;;
73693;SDS011;61997;53.974;11.670;2022-09-17T08:46:56;16.85;;;8.68;;
73693;SDS011;61997;53.974;11.670;2022-09-17T09:06:29;18.35;;;8.95;;
73693;SDS011;61997;53.974;11.670;2022-09-17T09:09:04;18.75;;;9.73;;
73693;SDS011;61997;53.974;11.670;2022-09-17T09:11:34;14.75;;;9.05;;
73693;SDS011;61997;53.974;11.670;2022-09-17T09:14:07;16.00;;;8.57;;
73693;SDS011;61997;53.974;11.670;2022-09-17T09:16:40;19.25;;;9.65;;
73693;SDS011;61997;53.974;11.670;2022-09-17T09:27:55;17.15;;;9.48;;
73693;SDS011;61997;53.974;11.670;2022-09-17T09:30:27;18.20;;;9.52;;
73693;SDS011;61997;53.974;11.670;2022-09-17T09:33:17;15.20;;;9.27;;
73693;SDS011;61997;53.974;11.670;2022-09-17T09:35:51;17.35;;;8.88;;
73693;SDS011;61997;53.974;11.670;2022-09-17T09:43:43;19.70;;;10.50;;
73693;SDS011;61997;53.974;11.670;2022-09-17T09:57:11;22.25;;;11.90;;
73693;SDS011;61997;53.974;11.670;2022-09-17T09:59:37;21.30;;;11.05;;
73693;SDS011;61997;53.974;11.670;2022-09-17T10:02:05;23.15;;;11.45;;
73693;SDS011;61997;53.974;11.670;2022-09-17T10:04:30;22.33;;;11.38;;
73693;SDS011;61997;53.974;11.670;2022-09-17T10:07:09;22.17;;;11.35;;
73693;SDS011;61997;53.974;11.670;2022-09-17T10:09:36;21.73;;;11.73;;
73693;SDS011;61997;53.974;11.670;2022-09-17T10:14:37;24.23;;;11.90;;
73693;SDS011;61997;53.974;11.670;2022-09-17T10:22:33;28.85;;;12.65;;
73693;SDS011;61997;53.974;11.670;2022-09-17T10:25:01;25.08;;;13.25;;
73693;SDS011;61997;53.974;11.670;2022-09-17T10:27:28;26.05;;;13.52;;
73693;SDS011;61997;53.974;11.670;2022-09-17T10:30:00;25.35;;;13.65;;
73693;SDS011;61997;53.974;11.670;2022-09-17T10:32:28;34.72;;;16.42;;
73693;SDS011;61997;53.974;11.670;2022-09-17T10:42:46;24.23;;;13.65;;
73693;SDS011;61997;53.974;11.670;2022-09-17T10:45:25;26.10;;;15.77;;
73693;SDS011;61997;53.974;11.670;2022-09-17T10:47:52;24.38;;;13.18;;
73693;SDS011;61997;53.974;11.670;2022-09-17T10:50:20;31.17;;;14.60;;
73693;SDS011;61997;53.974;11.670;2022-09-17T10:52:53;25.20;;;13.15;;
73693;SDS011;61997;53.974;11.670;2022-09-17T11:06:24;27.55;;;13.73;;
73693;SDS011;61997;53.974;11.670;2022-09-17T11:21:52;22.65;;;12.43;;
73693;SDS011;61997;53.974;11.670;2022-09-17T11:24:24;26.17;;;13.95;;
73693;SDS011;61997;53.974;11.670;2022-09-17T11:30:18;28.90;;;14.00;;
73693;SDS011;61997;53.974;11.670;2022-09-17T11:35:34;27.15;;;14.77;;
73693;SDS011;61997;53.974;11.670;2022-09-17T11:40:34;24.02;;;13.60;;
73693;SDS011;61997;53.974;11.670;2022-09-17T11:45:59;25.83;;;14.40;;
73693;SDS011;61997;53.974;11.670;2022-09-17T11:48:50;29.83;;;14.20;;
73693;SDS011;61997;53.974;11.670;2022-09-17T11:54:05;28.92;;;14.43;;
73693;SDS011;61997;53.974;11.670;2022-09-17T11:56:53;30.20;;;13.93;;
73693;SDS011;61997;53.974;11.670;2022-09-17T11:59:31;27.58;;;14.50;;
73693;SDS011;61997;53.974;11.670;2022-09-17T12:07:20;25.13;;;13.93;;
73693;SDS011;61997;53.974;11.670;2022-09-17T12:09:58;27.05;;;15.45;;
73693;SDS011;61997;53.974;11.670;2022-09-17T12:12:28;27.48;;;14.05;;
73693;SDS011;61997;53.974;11.670;2022-09-17T12:14:57;26.05;;;14.32;;
73693;SDS011;61997;53.974;11.670;2022-09-17T12:17:41;25.85;;;15.05;;
73693;SDS011;61997;53.974;11.670;2022-09-17T12:22:59;29.00;;;15.00;;
73693;SDS011;61997;53.974;11.670;2022-09-17T12:25:29;28.58;;;14.85;;
73693;SDS011;61997;53.974;11.670;2022-09-17T12:28:07;25.88;;;14.70;;
73693;SDS011;61997;53.974;11.670;2022-09-17T12:30:39;24.42;;;14.82;;
73693;SDS011;61997;53.974;11.670;2022-09-17T12:33:22;27.02;;;15.50;;
73693;SDS011;61997;53.974;11.670;2022-09-17T12:55:17;32.85;;;17.92;;
73693;SDS011;61997;53.974;11.670;2022-09-17T13:00:14;31.25;;;17.38;;
73693;SDS011;61997;53.974;11.670;2022-09-17T13:05:40;27.27;;;16.52;;
73693;SDS011;61997;53.974;11.670;2022-09-17T13:13:55;32.45;;;16.85;;
73693;SDS011;61997;53.974;11.670;2022-09-17T13:16:34;31.45;;;17.02;;
73693;SDS011;61997;53.974;11.670;2022-09-17T13:19:03;28.85;;;15.40;;
73693;SDS011;61997;53.974;11.670;2022-09-17T13:21:48;25.33;;;14.82;;
73693;SDS011;61997;53.974;11.670;2022-09-17T13:24:30;27.00;;;15.02;;
73693;SDS011;61997;53.974;11.670;2022-09-17T13:26:57;27.40;;;15.13;;
73693;SDS011;61997;53.974;11.670;2022-09-17T13:32:54;25.33;;;14.55;;
73693;SDS011;61997;53.974;11.670;2022-09-17T13:37:59;23.52;;;14.98;;
73693;SDS011;61997;53.974;11.670;2022-09-17T13:42:57;27.65;;;16.38;;
73693;SDS011;61997;53.974;11.670;2022-09-17T13:45:30;28.27;;;16.52;;
73693;SDS011;61997;53.974;11.670;2022-09-17T13:47:58;24.73;;;15.82;;
73693;SDS011;61997;53.974;11.670;2022-09-17T13:55:48;26.25;;;16.50;;
73693;SDS011;61997;53.974;11.670;2022-09-17T14:05:55;27.80;;;15.68;;
73693;SDS011;61997;53.974;11.670;2022-09-17T14:08:24;31.23;;;16.73;;
73693;SDS011;61997;53.974;11.670;2022-09-17T14:10:53;28.15;;;17.20;;
73693;SDS011;61997;53.974;11.670;2022-09-17T14:13:23;26.63;;;17.17;;
73693;SDS011;61997;53.974;11.670;2022-09-17T14:15:55;29.65;;;17.02;;
73693;SDS011;61997;53.974;11.670;2022-09-17T14:20:53;27.60;;;17.95;;
73693;SDS011;61997;53.974;11.670;2022-09-17T14:23:31;26.02;;;16.95;;
73693;SDS011;61997;53.974;11.670;2022-09-17T14:25:58;26.25;;;17.17;;
73693;SDS011;61997;53.974;11.670;2022-09-17T14:28:37;24.85;;;16.67;;
73693;SDS011;61997;53.974;11.670;2022-09-17T14:31:08;26.48;;;17.15;;
73693;SDS011;61997;53.974;11.670;2022-09-17T14:33:41;27.02;;;17.08;;
73693;SDS011;61997;53.974;11.670;2022-09-17T14:36:10;25.85;;;17.40;;
73693;SDS011;61997;53.974;11.670;2022-09-17T14:38:43;28.48;;;16.73;;
73693;SDS011;61997;53.974;11.670;2022-09-17T14:43:40;25.23;;;17.00;;
73693;SDS011;61997;53.974;11.670;2022-09-17T14:46:33;25.67;;;17.08;;
73693;SDS011;61997;53.974;11.670;2022-09-17T14:51:40;29.77;;;17.20;;
73693;SDS011;61997;53.974;11.670;2022-09-17T14:59:01;23.08;;;15.00;;
73693;SDS011;61997;53.974;11.670;2022-09-17T15:01:29;22.50;;;15.82;;
73693;SDS011;61997;53.974;11.670;2022-09-17T15:06:42;22.80;;;15.60;;
73693;SDS011;61997;53.974;11.670;2022-09-17T15:09:23;23.20;;;16.25;;
73693;SDS011;61997;53.974;11.670;2022-09-17T15:11:53;24.13;;;15.90;;
73693;SDS011;61997;53.974;11.670;2022-09-17T15:14:21;22.73;;;14.52;;
73693;SDS011;61997;53.974;11.670;2022-09-17T15:16:51;22.17;;;14.52;;
73693;SDS011;61997;53.974;11.670;2022-09-17T15:19:22;22.90;;;15.75;;
73693;SDS011;61997;53.974;11.670;2022-09-17T15:21:57;24.70;;;15.48;;
73693;SDS011;61997;53.974;11.670;2022-09-17T15:26:50;23.00;;;14.33;;
73693;SDS011;61997;53.974;11.670;2022-09-17T15:29:21;22.80;;;14.80;;
73693;SDS011;61997;53.974;11.670;2022-09-17T15:31:48;23.67;;;13.40;;
73693;SDS011;61997;53.974;11.670;2022-09-17T15:34:13;20.48;;;13.13;;
73693;SDS011;61997;53.974;11.670;2022-09-17T15:36:39;23.00;;;13.07;;
73693;SDS011;61997;53.974;11.670;2022-09-17T15:42:13;19.17;;;12.40;;
73693;SDS011;61997;53.974;11.670;2022-09-17T15:44:45;17.95;;;11.85;;
73693;SDS011;61997;53.974;11.670;2022-09-17T15:50:17;18.33;;;11.65;;
73693;SDS011;61997;53.974;11.670;2022-09-17T15:55:36;16.38;;;11.00;;
73693;SDS011;61997;53.974;11.670;2022-09-17T15:58:17;20.70;;;12.38;;
73693;SDS011;61997;53.974;11.670;2022-09-17T16:00:43;16.17;;;11.18;;
73693;SDS011;61997;53.974;11.670;2022-09-17T16:08:56;18.77;;;11.88;;
73693;SDS011;61997;53.974;11.670;2022-09-17T16:11:26;19.55;;;10.95;;
73693;SDS011;61997;53.974;11.670;2022-09-17T16:13:53;17.52;;;10.95;;
73693;SDS011;61997;53.974;11.670;2022-09-17T16:16:20;16.80;;;10.23;;
73693;SDS011;61997;53.974;11.670;2022-09-17T16:18:48;18.00;;;10.98;;
73693;SDS011;61997;53.974;11.670;2022-09-17T16:21:14;17.13;;;10.43;;
73693;SDS011;61997;53.974;11.670;2022-09-17T16:23:42;15.35;;;9.85;;
73693;SDS011;61997;53.974;11.670;2022-09-17T16:26:29;16.20;;;10.07;;
73693;SDS011;61997;53.974;11.670;2022-09-17T16:29:06;17.15;;;10.43;;
73693;SDS011;61997;53.974;11.670;2022-09-17T16:31:36;16.27;;;10.48;;
73693;SDS011;61997;53.974;11.670;2022-09-17T16:34:01;15.57;;;9.70;;
73693;SDS011;61997;53.974;11.670;2022-09-17T16:36:27;17.35;;;9.43;;
73693;SDS011;61997;53.974;11.670;2022-09-17T16:38:55;17.50;;;9.73;;
73693;SDS011;61997;53.974;11.670;2022-09-17T16:41:20;16.00;;;10.55;;
73693;SDS011;61997;53.974;11.670;2022-09-17T16:43:46;14.23;;;9.63;;
73693;SDS011;61997;53.974;11.670;2022-09-17T16:46:11;18.05;;;10.35;;
73693;SDS011;61997;53.974;11.670;2022-09-17T16:48:37;15.35;;;9.25;;
73693;SDS011;61997;53.974;11.670;2022-09-17T16:51:08;16.50;;;9.25;;
73693;SDS011;61997;53.974;11.670;2022-09-17T16:53:37;18.88;;;9.45;;
73693;SDS011;61997;53.974;11.670;2022-09-17T16:56:08;15.02;;;8.82;;
73693;SDS011;61997;53.974;11.670;2022-09-17T16:58:35;16.02;;;9.30;;
73693;SDS011;61997;53.974;11.670;2022-09-17T17:03:33;15.18;;;9.30;;
73693;SDS011;61997;53.974;11.670;2022-09-17T17:05:58;18.35;;;9.55;;
73693;SDS011;61997;53.974;11.670;2022-09-17T17:08:24;13.50;;;9.32;;
73693;SDS011;61997;53.974;11.670;2022-09-17T17:10:49;17.05;;;11.05;;
73693;SDS011;61997;53.974;11.670;2022-09-17T17:13:14;16.65;;;9.25;;
73693;SDS011;61997;53.974;11.670;2022-09-17T17:15:40;17.05;;;10.68;;
73693;SDS011;61997;53.974;11.670;2022-09-17T17:18:05;15.65;;;9.68;;
73693;SDS011;61997;53.974;11.670;2022-09-17T17:20:33;16.58;;;10.57;;
73693;SDS011;61997;53.974;11.670;2022-09-17T17:22:59;20.92;;;11.23;;
73693;SDS011;61997;53.974;11.670;2022-09-17T17:25:24;17.20;;;11.02;;
73693;SDS011;61997;53.974;11.670;2022-09-17T17:27:51;19.02;;;11.32;;
73693;SDS011;61997;53.974;11.670;2022-09-17T17:30:16;22.58;;;12.43;;
73693;SDS011;61997;53.974;11.670;2022-09-17T17:32:43;17.90;;;11.02;;
73693;SDS011;61997;53.974;11.670;2022-09-17T17:35:11;19.27;;;11.35;;
73693;SDS011;61997;53.974;11.670;2022-09-17T17:37:36;19.35;;;11.82;;
73693;SDS011;61997;53.974;11.670;2022-09-17T17:40:02;20.00;;;11.88;;
73693;SDS011;61997;53.974;11.670;2022-09-17T17:42:31;18.33;;;12.18;;
73693;SDS011;61997;53.974;11.670;2022-09-17T17:45:02;19.63;;;12.57;;
73693;SDS011;61997;53.974;11.670;2022-09-17T17:47:28;20.08;;;13.02;;
73693;SDS011;61997;53.974;11.670;2022-09-17T17:49:54;23.63;;;13.30;;
73693;SDS011;61997;53.974;11.670;2022-09-17T17:52:19;21.65;;;13.13;;
73693;SDS011;61997;53.974;11.670;2022-09-17T17:54:45;20.45;;;12.85;;
73693;SDS011;61997;53.974;11.670;2022-09-17T17:57:10;24.85;;;14.18;;
73693;SDS011;61997;53.974;11.670;2022-09-17T17:59:36;21.45;;;13.63;;
73693;SDS011;61997;53.974;11.670;2022-09-17T18:02:01;22.13;;;13.30;;
73693;SDS011;61997;53.974;11.670;2022-09-17T18:04:26;24.10;;;13.75;;
73693;SDS011;61997;53.974;11.670;2022-09-17T18:06:52;24.02;;;13.48;;
73693;SDS011;61997;53.974;11.670;2022-09-17T18:09:17;22.88;;;14.77;;
73693;SDS011;61997;53.974;11.670;2022-09-17T18:11:43;23.70;;;13.98;;
73693;SDS011;61997;53.974;11.670;2022-09-17T18:14:10;26.75;;;15.38;;
73693;SDS011;61997;53.974;11.670;2022-09-17T18:16:36;25.70;;;14.95;;
73693;SDS011;61997;53.974;11.670;2022-09-17T18:19:02;25.17;;;14.57;;
73693;SDS011;61997;53.974;11.670;2022-09-17T18:21:28;26.60;;;15.02;;
73693;SDS011;61997;53.974;11.670;2022-09-17T18:23:53;25.77;;;15.07;;
73693;SDS011;61997;53.974;11.670;2022-09-17T18:26:22;24.70;;;15.43;;
73693;SDS011;61997;53.974;11.670;2022-09-17T18:28:49;23.77;;;15.15;;
73693;SDS011;61997;53.974;11.670;2022-09-17T18:33:47;29.10;;;16.52;;
73693;SDS011;61997;53.974;11.670;2022-09-17T18:36:21;29.35;;;16.73;;
73693;SDS011;61997;53.974;11.670;2022-09-17T18:38:52;30.48;;;16.85;;
73693;SDS011;61997;53.974;11.670;2022-09-17T18:41:22;30.63;;;17.33;;